Agana Heights, GU

10:17 PM ChST on October 31, 2014 (GMT +1000)
Maite | Change Station
CLOSE
Current Station
Personal Weather Station
Location: Maite, GU
Elevation: 140 ft
Nearby Weather Stations

Elev 140 ft 13.48 °N, 144.76 °E | Updated 0 second ago

Mostly Cloudy
Mostly Cloudy
77.0 °F
Feels Like 78 °F
N
2.0
Wind Variable Wind from SSE
Gusts 5.0 mph

Today
High -- | Low -- °F
--% Chance of Precip.
Yesterday
High -- | Low -- °F
Precip. -- in
6:14 AM 5:54 PM
First Quarter, 54% visible
Pressure 29.80 in
Visibility 10.0 miles
Clouds Few 2000 ft
Scattered Clouds 5500 ft
Mostly Cloudy 7000 ft
Heat Index 78 °F
Dew Point 76 °F
Humidity 95%
Rainfall 0.04 in
Snow Depth Not available.
UV 0.0 out of 12
Pollen Not available.
Air Quality Not available.
Flu Activity Not available.
METAR PGUM 311154Z 00000KT 10SM FEW020 SCT055 BKN070 26/24 A2982 RMK AO2 SLP090 60002 70008 T02560244 10289 20250 50007

More Conditions Fewer Conditions

Pressure 29.80 in
Visibility 10.0 miles
Clouds Few 2000 ft
Scattered Clouds 5500 ft
Mostly Cloudy 7000 ft
Heat Index 78 °F
Dew Point 76 °F
Humidity 95%
Rainfall 0.04 in
Snow Depth Not available.
UV 0.0 out of 12
Pollen Not available.
Air Quality Not available.
Flu Activity Not available.
METAR PGUM 311154Z 00000KT 10SM FEW020 SCT055 BKN070 26/24 A2982 RMK AO2 SLP090 60002 70008 T02560244 10289 20250 50007

More Conditions Fewer Conditions

10-Day Weather Forecast

Almanac

Astronomy

Oct. 31, 2014 Rise Set
Actual Time
Civil Twilight
Nautical Twilight
Astronomical Twilight
Moon
Length of Visible Light
Length of Day
Tomorrow will be .
, % of the Moon is Illuminated

Today's Extremes

State Highs State Lows

Community

WunderPhotos

Upload Photos

1,766,589 photos uploaded!

WunderBlogs® & News

Nearby

Air Quality

  Air Quality AQ Index Pollutant
Not available.

Snow Depth

Station Depth Elevation

Earthquake Activity

City Distance Mag. Time & Date
Minimum magnitude displayed is 2.5.

Coastal Water Temperatures

Place Temperature

Nearby Weather Stations